createdAt,value
2017-12-30T00:00:14.866Z,99.99
2017-12-30T00:01:14.848Z,99.99
2017-12-30T00:02:14.837Z,99.99
2017-12-30T00:03:14.815Z,99.99
2017-12-30T00:04:14.805Z,99.99
2017-12-30T00:05:14.776Z,99.99
2017-12-30T00:06:14.766Z,99.99
2017-12-30T00:07:14.741Z,99.99
2017-12-30T00:08:14.724Z,99.99
2017-12-30T00:09:14.716Z,99.99
2017-12-30T00:10:14.690Z,99.99
2017-12-30T00:11:14.689Z,99.99
2017-12-30T00:12:14.665Z,99.99
2017-12-30T00:13:14.645Z,99.99
2017-12-30T00:14:14.627Z,99.99
2017-12-30T00:15:14.366Z,99.99
2017-12-30T00:16:14.604Z,99.99
2017-12-30T00:17:14.580Z,99.99
2017-12-30T00:18:14.551Z,99.99
2017-12-30T00:19:14.543Z,99.99
2017-12-30T00:20:14.522Z,99.99
2017-12-30T00:21:14.509Z,99.99
2017-12-30T00:22:14.487Z,99.99
2017-12-30T00:23:14.481Z,99.99
2017-12-30T00:24:14.194Z,99.99
2017-12-30T00:25:14.433Z,99.99
2017-12-30T00:26:14.428Z,99.99
2017-12-30T00:27:14.405Z,99.99
2017-12-30T00:28:14.386Z,99.99
2017-12-30T00:29:14.406Z,99.99
2017-12-30T00:30:14.343Z,99.99
2017-12-30T00:31:14.329Z,99.99
2017-12-30T00:32:14.316Z,99.99
2017-12-30T00:33:14.302Z,99.99
2017-12-30T00:34:14.284Z,99.99
2017-12-30T00:35:14.262Z,99.99
2017-12-30T00:36:14.271Z,99.99
2017-12-30T00:37:14.235Z,99.99
2017-12-30T00:38:14.212Z,99.99
2017-12-30T00:39:14.198Z,99.99
2017-12-30T00:40:14.222Z,99.99
2017-12-30T00:41:14.157Z,99.99
2017-12-30T00:42:14.147Z,99.99
2017-12-30T00:43:14.130Z,99.99
2017-12-30T00:44:13.849Z,99.99
2017-12-30T00:45:14.097Z,99.99
2017-12-30T00:46:14.072Z,99.99
2017-12-30T00:47:14.054Z,99.99
2017-12-30T00:48:14.042Z,99.99
2017-12-30T00:49:13.763Z,99.99
2017-12-30T00:50:14.008Z,99.99
2017-12-30T00:51:14.010Z,99.99
2017-12-30T00:52:13.718Z,99.99
2017-12-30T00:53:13.948Z,99.99
2017-12-30T00:54:13.934Z,99.99
2017-12-30T00:55:13.656Z,99.99
2017-12-30T00:56:13.899Z,99.99
2017-12-30T00:57:13.893Z,99.99
2017-12-30T00:58:13.864Z,99.99
2017-12-30T00:59:13.849Z,99.99
2017-12-30T01:00:13.829Z,99.99
2017-12-30T01:01:13.813Z,99.99
2017-12-30T01:02:13.795Z,99.99
2017-12-30T01:03:13.781Z,99.99
2017-12-30T01:04:13.763Z,99.99
2017-12-30T01:05:13.741Z,99.99
2017-12-30T01:06:13.470Z,99.99
2017-12-30T01:07:13.714Z,99.99
2017-12-30T01:08:13.690Z,99.99
2017-12-30T01:09:13.424Z,99.99
2017-12-30T01:10:13.675Z,99.99
2017-12-30T01:11:13.637Z,99.99
2017-12-30T01:12:13.618Z,99.99
2017-12-30T01:13:13.605Z,99.99
2017-12-30T01:14:13.588Z,99.99
2017-12-30T01:15:13.575Z,99.99
2017-12-30T01:16:13.565Z,99.99
2017-12-30T01:17:13.543Z,99.99
2017-12-30T01:18:13.527Z,99.99
2017-12-30T01:19:13.244Z,99.99
2017-12-30T01:20:13.487Z,99.99
2017-12-30T01:21:13.468Z,99.99
2017-12-30T01:22:13.457Z,99.99
2017-12-30T01:23:13.440Z,99.99
2017-12-30T01:24:13.422Z,99.99
2017-12-30T01:25:13.412Z,99.99
2017-12-30T01:26:13.398Z,99.99
2017-12-30T01:27:13.363Z,99.99
2017-12-30T01:28:13.345Z,99.99
2017-12-30T01:29:13.075Z,99.99
2017-12-30T01:30:13.313Z,99.99
2017-12-30T01:31:13.303Z,99.99
2017-12-30T01:32:13.287Z,99.99
2017-12-30T01:33:13.260Z,99.99
2017-12-30T01:34:13.251Z,99.99
2017-12-30T01:35:13.225Z,99.99
2017-12-30T01:36:13.226Z,99.99
2017-12-30T01:37:13.200Z,99.99
2017-12-30T01:38:13.187Z,99.99
2017-12-30T01:39:13.159Z,99.99
2017-12-30T01:40:13.153Z,99.99
2017-12-30T01:41:13.137Z,99.99
2017-12-30T01:42:13.109Z,99.99
2017-12-30T01:43:13.101Z,99.89
2017-12-30T01:44:13.071Z,99.99
2017-12-30T01:45:13.071Z,99.99
2017-12-30T01:46:13.058Z,99.89
2017-12-30T01:47:13.026Z,99.99
2017-12-30T01:48:12.756Z,99.8
2017-12-30T01:49:13.006Z,99.89
2017-12-30T01:50:12.979Z,99.71
2017-12-30T01:51:12.951Z,99.99
2017-12-30T01:52:12.951Z,99.99
2017-12-30T01:53:12.929Z,99.99
2017-12-30T01:54:12.648Z,99.99
2017-12-30T01:55:12.893Z,99.89
2017-12-30T01:56:12.624Z,99.99
2017-12-30T01:57:12.859Z,99.71
2017-12-30T01:58:12.577Z,99.99
2017-12-30T01:59:12.827Z,99.99
2017-12-30T02:00:12.801Z,99.71
2017-12-30T02:01:12.781Z,99.99
2017-12-30T02:02:12.767Z,99.99
2017-12-30T02:03:12.749Z,99.89
2017-12-30T02:04:12.744Z,99.14
2017-12-30T02:05:12.713Z,99.89
2017-12-30T02:06:12.701Z,99.23
2017-12-30T02:07:12.681Z,99.8
2017-12-30T02:08:12.675Z,99.23
2017-12-30T02:09:12.391Z,99.42
2017-12-30T02:10:12.631Z,99.14
2017-12-30T02:11:12.633Z,99.42
2017-12-30T02:12:12.599Z,99.52
2017-12-30T02:13:12.585Z,99.52
2017-12-30T02:14:12.307Z,99.8
2017-12-30T02:15:12.295Z,99.71
2017-12-30T02:16:12.279Z,99.14
2017-12-30T02:17:12.512Z,99.14
2017-12-30T02:18:12.494Z,99.23
2017-12-30T02:19:12.488Z,99.23
2017-12-30T02:20:12.460Z,98.81
2017-12-30T02:21:12.443Z,98.9
2017-12-30T02:22:12.435Z,99.09
2017-12-30T02:23:12.422Z,98.43
2017-12-30T02:24:12.399Z,98.71
2017-12-30T02:25:12.380Z,98.52
2017-12-30T02:26:12.363Z,98.05
2017-12-30T02:27:12.343Z,98.14
2017-12-30T02:28:12.327Z,98.14
2017-12-30T02:29:12.324Z,98.14
2017-12-30T02:30:12.301Z,98.24
2017-12-30T02:31:12.287Z,98.33
2017-12-30T02:32:12.011Z,98.14
2017-12-30T02:33:12.243Z,97.96
2017-12-30T02:34:12.239Z,97.58
2017-12-30T02:35:12.223Z,97.58
2017-12-30T02:36:12.197Z,97.3
2017-12-30T02:37:12.184Z,96.83
2017-12-30T02:38:12.164Z,97.01
2017-12-30T02:39:12.152Z,96.64
2017-12-30T02:40:12.142Z,97.01
2017-12-30T02:41:12.129Z,96.83
2017-12-30T02:42:12.098Z,96.83
2017-12-30T02:43:12.083Z,96.83
2017-12-30T02:44:12.064Z,96.73
2017-12-30T02:45:12.051Z,97.01
2017-12-30T02:46:12.037Z,97.01
2017-12-30T02:47:12.019Z,96.64
2017-12-30T02:48:11.998Z,96.92
2017-12-30T02:49:11.984Z,96.92
2017-12-30T02:50:11.716Z,96.26
2017-12-30T02:51:11.951Z,96.16
2017-12-30T02:52:11.933Z,96.26
2017-12-30T02:53:11.917Z,95.97
2017-12-30T02:54:11.653Z,96.45
2017-12-30T02:55:11.896Z,96.07
2017-12-30T02:56:11.878Z,96.21
2017-12-30T02:57:11.861Z,96.31
2017-12-30T02:58:11.840Z,96.31
2017-12-30T02:59:11.825Z,96.5
2017-12-30T03:00:11.803Z,96.31
2017-12-30T03:01:11.797Z,95.74
2017-12-30T03:02:11.778Z,95.83
2017-12-30T03:03:11.767Z,96.12
2017-12-30T03:04:11.739Z,95.88
2017-12-30T03:05:11.725Z,96.07
2017-12-30T03:06:11.710Z,95.69
2017-12-30T03:07:11.690Z,95.88
2017-12-30T03:08:11.673Z,95.69
2017-12-30T03:09:11.412Z,95.88
2017-12-30T03:10:11.392Z,95.78
2017-12-30T03:11:11.639Z,95.69
2017-12-30T03:12:11.609Z,95.69
2017-12-30T03:13:11.592Z,95.78
2017-12-30T03:14:11.577Z,95.88
2017-12-30T03:15:11.565Z,95.59
2017-12-30T03:16:11.312Z,96.26
2017-12-30T03:17:11.538Z,96.45
2017-12-30T03:18:11.510Z,96.54
2017-12-30T03:19:11.509Z,96.35
2017-12-30T03:20:11.486Z,95.88
2017-12-30T03:21:11.473Z,96.16
2017-12-30T03:22:11.454Z,95.88
2017-12-30T03:23:11.431Z,96.16
2017-12-30T03:24:11.414Z,96.16
2017-12-30T03:25:11.408Z,96.07
2017-12-30T03:26:11.396Z,96.07
2017-12-30T03:27:11.110Z,96.92
2017-12-30T03:28:11.349Z,96.64
2017-12-30T03:29:11.338Z,96.35
2017-12-30T03:30:11.323Z,96.07
2017-12-30T03:31:11.312Z,96.07
2017-12-30T03:32:11.284Z,96.35
2017-12-30T03:33:11.276Z,96.07
2017-12-30T03:34:11.263Z,96.26
2017-12-30T03:35:11.253Z,96.45
2017-12-30T03:36:11.225Z,96.45
2017-12-30T03:37:11.202Z,96.07
2017-12-30T03:38:11.188Z,96.16
2017-12-30T03:39:11.170Z,95.69
2017-12-30T03:40:11.156Z,95.93
2017-12-30T03:41:11.149Z,95.74
2017-12-30T03:42:10.879Z,95.59
2017-12-30T03:43:11.105Z,95.74
2017-12-30T03:44:11.103Z,95.07
2017-12-30T03:45:11.078Z,94.98
2017-12-30T03:46:11.060Z,94.89
2017-12-30T03:47:10.785Z,95.17
2017-12-30T03:48:11.025Z,94.98
2017-12-30T03:49:11.017Z,94.98
2017-12-30T03:50:10.998Z,94.89
2017-12-30T03:51:10.723Z,95.17
2017-12-30T03:52:10.960Z,94.42
2017-12-30T03:53:10.945Z,94.32
2017-12-30T03:54:10.937Z,94.32
2017-12-30T03:55:10.911Z,94.13
2017-12-30T03:56:10.896Z,94.13
2017-12-30T03:57:10.880Z,94.42
2017-12-30T03:58:10.866Z,94.6
2017-12-30T03:59:10.858Z,93.85
2017-12-30T04:00:10.832Z,93.85
2017-12-30T04:01:10.816Z,93.66
2017-12-30T04:02:10.802Z,94.13
2017-12-30T04:03:10.788Z,94.04
2017-12-30T04:04:10.772Z,94.42
2017-12-30T04:05:10.766Z,94.04
2017-12-30T04:06:10.746Z,94.13
2017-12-30T04:07:10.723Z,93.75
2017-12-30T04:08:10.715Z,93.85
2017-12-30T04:09:10.437Z,94.23
2017-12-30T04:10:10.677Z,94.04
2017-12-30T04:11:10.668Z,93.75
2017-12-30T04:12:10.654Z,93.75
2017-12-30T04:13:10.636Z,94.13
2017-12-30T04:14:10.356Z,93.75
2017-12-30T04:15:10.607Z,93.94
2017-12-30T04:16:10.580Z,93.99
2017-12-30T04:17:10.571Z,94.08
2017-12-30T04:18:10.548Z,93.51
2017-12-30T04:19:10.286Z,93.7
2017-12-30T04:20:10.274Z,93.51
2017-12-30T04:21:10.510Z,93.42
2017-12-30T04:22:10.489Z,93.51
2017-12-30T04:23:10.470Z,94.08
2017-12-30T04:24:10.455Z,93.99
2017-12-30T04:25:10.185Z,93.89
2017-12-30T04:26:10.432Z,93.42
2017-12-30T04:27:10.407Z,93.51
2017-12-30T04:28:10.413Z,92.85
2017-12-30T04:29:10.378Z,93.04
2017-12-30T04:30:10.366Z,92.94
2017-12-30T04:31:10.346Z,93.32
2017-12-30T04:32:10.335Z,93.42
2017-12-30T04:33:10.334Z,93.04
2017-12-30T04:34:10.303Z,93.13
2017-12-30T04:35:10.293Z,93.13
2017-12-30T04:36:10.280Z,93.04
2017-12-30T04:37:10.262Z,93.13
2017-12-30T04:38:10.239Z,93.23
2017-12-30T04:39:10.233Z,93.13
2017-12-30T04:40:09.964Z,93.23
2017-12-30T04:41:10.197Z,93.23
2017-12-30T04:42:10.186Z,93.04
2017-12-30T04:43:10.165Z,93.04
2017-12-30T04:44:10.147Z,93.23
2017-12-30T04:45:10.133Z,93.13
2017-12-30T04:46:09.861Z,93.23
2017-12-30T04:47:10.104Z,93.04
2017-12-30T04:48:10.090Z,92.94
2017-12-30T04:49:10.080Z,93.04
2017-12-30T04:50:10.065Z,93.04
2017-12-30T04:51:10.046Z,93.23
2017-12-30T04:52:10.027Z,92.94
2017-12-30T04:53:10.014Z,93.23
2017-12-30T04:54:10.006Z,93.04
2017-12-30T04:55:09.986Z,93.13
2017-12-30T04:56:09.964Z,93.23
2017-12-30T04:57:09.960Z,93.04
2017-12-30T04:58:09.945Z,92.94
2017-12-30T04:59:09.934Z,93.51
2017-12-30T05:00:09.647Z,93.42
2017-12-30T05:01:09.894Z,93.61
2017-12-30T05:02:09.873Z,92.94
2017-12-30T05:03:09.858Z,93.04
2017-12-30T05:04:09.845Z,92.94
2017-12-30T05:05:09.833Z,93.13
2017-12-30T05:06:09.822Z,93.23
2017-12-30T05:07:09.795Z,93.04
2017-12-30T05:08:09.528Z,92.94
2017-12-30T05:09:09.784Z,93.04
2017-12-30T05:10:09.758Z,93.23
2017-12-30T05:11:09.747Z,93.42
2017-12-30T05:12:09.724Z,93.32
2017-12-30T05:13:09.450Z,93.23
2017-12-30T05:14:09.695Z,93.04
2017-12-30T05:15:09.677Z,92.94
2017-12-30T05:16:09.666Z,92.76
2017-12-30T05:17:09.651Z,93.04
2017-12-30T05:18:09.375Z,93.13
2017-12-30T05:19:09.618Z,93.04
2017-12-30T05:20:09.610Z,93.23
2017-12-30T05:21:09.589Z,93.23
2017-12-30T05:22:09.570Z,93.23
2017-12-30T05:23:09.300Z,92.85
2017-12-30T05:24:09.550Z,93.23
2017-12-30T05:25:09.541Z,92.94
2017-12-30T05:26:09.257Z,93.04
2017-12-30T05:27:09.495Z,93.23
2017-12-30T05:28:09.479Z,93.04
2017-12-30T05:29:09.473Z,92.94
2017-12-30T05:30:09.458Z,92.85
2017-12-30T05:31:09.438Z,93.51
2017-12-30T05:32:09.167Z,92.85
2017-12-30T05:33:09.404Z,93.32
2017-12-30T05:34:09.395Z,93.7
2017-12-30T05:35:09.384Z,93.51
2017-12-30T05:36:09.361Z,93.8
2017-12-30T05:37:09.343Z,93.61
2017-12-30T05:38:09.084Z,93.99
2017-12-30T05:39:09.313Z,94.27
2017-12-30T05:40:09.309Z,93.8
2017-12-30T05:41:09.029Z,94.08
2017-12-30T05:42:09.278Z,93.7
2017-12-30T05:43:09.260Z,94.46
2017-12-30T05:44:09.237Z,94.46
2017-12-30T05:45:09.233Z,94.37
2017-12-30T05:46:08.960Z,94.08
2017-12-30T05:47:09.201Z,94.37
2017-12-30T05:48:09.182Z,94.18
2017-12-30T05:49:09.163Z,94.27
2017-12-30T05:50:09.156Z,94.56
2017-12-30T05:51:09.137Z,94.65
2017-12-30T05:52:09.129Z,93.7
2017-12-30T05:53:09.109Z,93.89
2017-12-30T05:54:09.086Z,93.7
2017-12-30T05:55:08.814Z,93.8
2017-12-30T05:56:08.800Z,93.7
2017-12-30T05:57:09.038Z,93.99
2017-12-30T05:58:09.026Z,93.7
2017-12-30T05:59:09.008Z,93.7
2017-12-30T06:00:08.994Z,94.18
2017-12-30T06:01:08.991Z,93.99
2017-12-30T06:02:08.972Z,94.27
2017-12-30T06:03:08.949Z,93.61
2017-12-30T06:04:08.678Z,93.51
2017-12-30T06:05:08.919Z,93.61
2017-12-30T06:06:08.901Z,93.61
2017-12-30T06:07:08.897Z,93.51
2017-12-30T06:08:08.884Z,93.99
2017-12-30T06:09:08.860Z,94.04
2017-12-30T06:10:08.851Z,93.37
2017-12-30T06:11:08.837Z,93.75
2017-12-30T06:12:08.564Z,93.94
2017-12-30T06:13:08.798Z,93.94
2017-12-30T06:14:08.792Z,94.13
2017-12-30T06:15:08.774Z,93.94
2017-12-30T06:16:08.753Z,94.04
2017-12-30T06:17:08.737Z,93.84
2017-12-30T06:18:08.722Z,93.84
2017-12-30T06:19:08.714Z,93.84
2017-12-30T06:20:08.701Z,93.89
2017-12-30T06:21:08.684Z,93.7
2017-12-30T06:22:08.670Z,93.56
2017-12-30T06:23:08.653Z,94.04
2017-12-30T06:24:08.633Z,93.94
2017-12-30T06:25:08.617Z,93.37
2017-12-30T06:26:08.610Z,93.65
2017-12-30T06:27:08.340Z,93.94
2017-12-30T06:28:08.576Z,93.7
2017-12-30T06:29:08.309Z,94.04
2017-12-30T06:30:08.287Z,93.94
2017-12-30T06:31:08.543Z,93.94
2017-12-30T06:32:08.524Z,93.84
2017-12-30T06:33:08.249Z,94.32
2017-12-30T06:34:08.492Z,94.32
2017-12-30T06:35:08.479Z,93.75
2017-12-30T06:36:08.462Z,93.75
2017-12-30T06:37:08.453Z,94.04
2017-12-30T06:38:08.428Z,94.32
2017-12-30T06:39:08.421Z,94.04
2017-12-30T06:40:08.139Z,93.94
2017-12-30T06:41:08.387Z,93.75
2017-12-30T06:42:08.381Z,93.94
2017-12-30T06:43:08.349Z,93.94
2017-12-30T06:44:08.341Z,94.04
2017-12-30T06:45:08.326Z,93.75
2017-12-30T06:46:08.307Z,94.04
2017-12-30T06:47:08.302Z,93.75
2017-12-30T06:48:08.277Z,94.13
2017-12-30T06:49:08.260Z,93.84
2017-12-30T06:50:08.257Z,94.51
2017-12-30T06:51:08.232Z,94.42
2017-12-30T06:52:08.223Z,94.32
2017-12-30T06:53:08.204Z,94.23
2017-12-30T06:54:08.195Z,94.04
2017-12-30T06:55:08.182Z,94.23
2017-12-30T06:56:08.162Z,94.51
2017-12-30T06:57:08.160Z,94.42
2017-12-30T06:58:08.128Z,94.51
2017-12-30T06:59:08.113Z,94.7
2017-12-30T07:00:08.104Z,95.07
2017-12-30T07:01:08.087Z,94.6
2017-12-30T07:02:07.823Z,94.42
2017-12-30T07:03:07.804Z,94.42
2017-12-30T07:04:08.048Z,94.42
2017-12-30T07:05:08.026Z,94.32
2017-12-30T07:06:07.760Z,94.32
2017-12-30T07:07:07.996Z,94.42
2017-12-30T07:08:07.990Z,93.75
2017-12-30T07:09:07.975Z,93.94
2017-12-30T07:10:07.954Z,93.94
2017-12-30T07:11:07.948Z,93.94
2017-12-30T07:12:07.930Z,94.13
2017-12-30T07:13:07.918Z,93.94
2017-12-30T07:14:07.647Z,93.75
2017-12-30T07:15:07.890Z,93.99
2017-12-30T07:16:07.922Z,94.42
2017-12-30T07:17:07.854Z,94.08
2017-12-30T07:18:07.836Z,94.08
2017-12-30T07:19:07.831Z,93.89
2017-12-30T07:20:07.822Z,93.89
2017-12-30T07:21:07.792Z,94.08
2017-12-30T07:22:07.777Z,94.18
2017-12-30T07:23:07.802Z,94.08
2017-12-30T07:24:07.769Z,93.8
2017-12-30T07:25:07.736Z,93.61
2017-12-30T07:26:07.730Z,93.99
2017-12-30T07:27:07.709Z,93.89
2017-12-30T07:28:07.700Z,94.08
2017-12-30T07:29:07.697Z,94.18
2017-12-30T07:30:07.671Z,93.7
2017-12-30T07:31:07.648Z,94.56
2017-12-30T07:32:07.653Z,93.8
2017-12-30T07:33:07.630Z,94.08
2017-12-30T07:34:07.604Z,94.08
2017-12-30T07:35:07.600Z,93.99
2017-12-30T07:36:07.320Z,94.27
2017-12-30T07:37:07.562Z,94.08
2017-12-30T07:38:07.291Z,94.08
2017-12-30T07:39:07.536Z,94.18
2017-12-30T07:40:07.528Z,93.99
2017-12-30T07:41:07.514Z,93.89
2017-12-30T07:42:07.490Z,93.8
2017-12-30T07:43:07.480Z,93.99
2017-12-30T07:44:07.475Z,93.7
2017-12-30T07:45:07.454Z,93.89
2017-12-30T07:46:07.444Z,93.7
2017-12-30T07:47:07.422Z,94.08
2017-12-30T07:48:07.416Z,94.08
2017-12-30T07:49:07.407Z,94.08
2017-12-30T07:50:07.380Z,94.08
2017-12-30T07:51:07.375Z,93.99
2017-12-30T07:52:07.359Z,93.89
2017-12-30T07:53:07.337Z,93.99
2017-12-30T07:54:07.075Z,93.8
2017-12-30T07:55:07.306Z,93.8
2017-12-30T07:56:07.037Z,93.99
2017-12-30T07:57:07.287Z,94.46
2017-12-30T07:58:07.268Z,94.56
2017-12-30T07:59:07.254Z,94.37
2017-12-30T08:00:07.236Z,94.37
2017-12-30T08:01:07.225Z,94.46
2017-12-30T08:02:07.221Z,94.46
2017-12-30T08:03:07.197Z,94.08
2017-12-30T08:04:07.187Z,94.08
2017-12-30T08:05:07.178Z,94.65
2017-12-30T08:06:07.159Z,94.56
2017-12-30T08:07:07.146Z,94.46
2017-12-30T08:08:06.871Z,94.56
2017-12-30T08:09:07.113Z,94.65
2017-12-30T08:10:06.842Z,94.46
2017-12-30T08:11:07.085Z,94.46
2017-12-30T08:12:07.081Z,94.08
2017-12-30T08:13:07.054Z,94.27
2017-12-30T08:14:07.046Z,94.51
2017-12-30T08:15:07.036Z,94.7
2017-12-30T08:16:07.021Z,93.7
2017-12-30T08:17:07.011Z,93.8
2017-12-30T08:18:06.986Z,94.23
2017-12-30T08:19:06.973Z,94.18
2017-12-30T08:20:06.962Z,93.8
2017-12-30T08:21:06.952Z,94.04
2017-12-30T08:22:06.678Z,94.23
2017-12-30T08:23:06.659Z,94.32
2017-12-30T08:24:06.909Z,93.94
2017-12-30T08:25:06.889Z,94.13
2017-12-30T08:26:06.873Z,94.04
2017-12-30T08:27:06.862Z,94.23
2017-12-30T08:28:06.875Z,93.94
2017-12-30T08:29:06.844Z,93.94
2017-12-30T08:30:06.819Z,94.23
2017-12-30T08:31:06.853Z,93.84
2017-12-30T08:32:06.536Z,93.75
2017-12-30T08:33:06.778Z,93.65
2017-12-30T08:34:06.516Z,93.94
2017-12-30T08:35:06.763Z,93.94
2017-12-30T08:36:06.749Z,94.04
2017-12-30T08:37:06.736Z,94.13
2017-12-30T08:38:06.716Z,94.04
2017-12-30T08:39:06.706Z,93.46
2017-12-30T08:40:06.429Z,93.56
2017-12-30T08:41:06.414Z,92.99
2017-12-30T08:42:06.659Z,93.08
2017-12-30T08:43:06.643Z,93.08
2017-12-30T08:44:06.637Z,93.65
2017-12-30T08:45:06.622Z,93.56
2017-12-30T08:46:06.349Z,93.37
2017-12-30T08:47:06.588Z,93.46
2017-12-30T08:48:06.584Z,93.18
2017-12-30T08:49:06.566Z,93.18
2017-12-30T08:50:06.546Z,93.27
2017-12-30T08:51:06.537Z,92.99
2017-12-30T08:52:06.522Z,92.99
2017-12-30T08:53:06.518Z,93.18
2017-12-30T08:54:06.538Z,93.41
2017-12-30T08:55:06.493Z,93.23
2017-12-30T08:56:06.475Z,93.51
2017-12-30T08:57:06.199Z,93.23
2017-12-30T08:58:06.456Z,93.32
2017-12-30T08:59:06.429Z,93.51
2017-12-30T09:00:06.416Z,92.85
2017-12-30T09:01:06.153Z,93.04
2017-12-30T09:02:06.156Z,92.66
2017-12-30T09:03:06.387Z,92.66
2017-12-30T09:04:06.369Z,92.66
2017-12-30T09:05:06.355Z,92.38
2017-12-30T09:06:06.342Z,92.57
2017-12-30T09:07:06.325Z,92.57
2017-12-30T09:08:06.320Z,92.57
2017-12-30T09:09:06.297Z,92.38
2017-12-30T09:10:06.336Z,92.28
2017-12-30T09:11:06.023Z,92.38
2017-12-30T09:12:06.003Z,92.57
2017-12-30T09:13:06.245Z,91.71
2017-12-30T09:14:06.238Z,91.99
2017-12-30T09:15:06.252Z,92.04
2017-12-30T09:16:05.961Z,91.8
2017-12-30T09:17:06.255Z,91.99
2017-12-30T09:18:06.187Z,91.61
2017-12-30T09:19:06.181Z,92.04
2017-12-30T09:20:06.166Z,91.9
2017-12-30T09:21:06.148Z,92.23
2017-12-30T09:22:06.134Z,91.9
2017-12-30T09:23:06.127Z,92.28
2017-12-30T09:24:06.112Z,92.38
2017-12-30T09:25:06.094Z,92.47
2017-12-30T09:26:06.088Z,92.47
2017-12-30T09:27:05.833Z,92.47
2017-12-30T09:28:06.062Z,92.38
2017-12-30T09:29:05.790Z,92.85
2017-12-30T09:30:06.039Z,92.57
2017-12-30T09:31:06.019Z,92.04
2017-12-30T09:32:06.015Z,91.75
2017-12-30T09:33:05.996Z,91.94
2017-12-30T09:34:05.988Z,92.14
2017-12-30T09:35:05.725Z,92.04
2017-12-30T09:36:05.958Z,92.14
2017-12-30T09:37:05.944Z,92.04
2017-12-30T09:38:05.935Z,92.14
2017-12-30T09:39:05.922Z,92.04
2017-12-30T09:40:05.906Z,91.94
2017-12-30T09:41:05.893Z,92.23
2017-12-30T09:42:05.879Z,92.04
2017-12-30T09:43:05.870Z,91.85
2017-12-30T09:44:05.859Z,92.23
2017-12-30T09:45:05.596Z,92.33
2017-12-30T09:46:05.831Z,92.23
2017-12-30T09:47:05.826Z,92.14
2017-12-30T09:48:05.806Z,92.23
2017-12-30T09:49:05.799Z,92.14
2017-12-30T09:50:05.534Z,91.94
2017-12-30T09:51:05.776Z,91.66
2017-12-30T09:52:05.764Z,91.85
2017-12-30T09:53:05.746Z,91.66
2017-12-30T09:54:05.735Z,91.94
2017-12-30T09:55:05.724Z,91.85
2017-12-30T09:56:05.718Z,92.14
2017-12-30T09:57:05.442Z,91.94
2017-12-30T09:58:05.683Z,91.94
2017-12-30T09:59:05.669Z,92.14
2017-12-30T10:00:05.410Z,92.14
2017-12-30T10:01:05.645Z,92.33
2017-12-30T10:02:05.633Z,91.75
2017-12-30T10:03:05.623Z,92.33
2017-12-30T10:04:05.611Z,92.14
2017-12-30T10:05:05.612Z,92.04
2017-12-30T10:06:05.585Z,91.56
2017-12-30T10:07:05.571Z,92.04
2017-12-30T10:08:05.569Z,92.04
2017-12-30T10:09:05.556Z,92.23
2017-12-30T10:10:05.537Z,92.14
2017-12-30T10:11:05.537Z,92.04
2017-12-30T10:12:05.524Z,92.14
2017-12-30T10:13:05.254Z,92.04
2017-12-30T10:14:05.490Z,91.85
2017-12-30T10:15:05.222Z,91.75
2017-12-30T10:16:05.463Z,91.75
2017-12-30T10:17:05.209Z,91.85
2017-12-30T10:18:05.443Z,92.14
2017-12-30T10:19:05.447Z,92.14
2017-12-30T10:20:05.413Z,91.99
2017-12-30T10:21:05.405Z,91.56
2017-12-30T10:22:05.383Z,91.75
2017-12-30T10:23:05.128Z,91.89
2017-12-30T10:24:05.386Z,91.94
2017-12-30T10:25:05.370Z,91.89
2017-12-30T10:26:05.351Z,91.89
2017-12-30T10:27:05.328Z,92.18
2017-12-30T10:28:05.061Z,91.89
2017-12-30T10:29:05.318Z,91.99
2017-12-30T10:30:05.297Z,91.33
2017-12-30T10:31:05.284Z,91.52
2017-12-30T10:32:05.268Z,91.33
2017-12-30T10:33:05.265Z,91.04
2017-12-30T10:34:04.997Z,90.66
2017-12-30T10:35:04.979Z,90.76
2017-12-30T10:36:05.258Z,90.76
2017-12-30T10:37:04.960Z,90.76
2017-12-30T10:38:05.205Z,91.14
2017-12-30T10:39:05.190Z,91.33
2017-12-30T10:40:04.919Z,91.14
2017-12-30T10:41:05.165Z,91.04
2017-12-30T10:42:05.155Z,90.85
2017-12-30T10:43:05.139Z,90.66
2017-12-30T10:44:05.130Z,90.8
2017-12-30T10:45:05.126Z,90.52
2017-12-30T10:46:05.114Z,90.61
2017-12-30T10:47:05.113Z,90.57
2017-12-30T10:48:05.095Z,90.57
2017-12-30T10:49:04.822Z,90.85
2017-12-30T10:50:04.809Z,91.14
2017-12-30T10:51:05.049Z,91.04
2017-12-30T10:52:05.039Z,90.85
2017-12-30T10:53:05.023Z,90.76
2017-12-30T10:54:04.759Z,90.66
2017-12-30T10:55:05.002Z,90.76
2017-12-30T10:56:04.996Z,90.95
2017-12-30T10:57:04.730Z,90.76
2017-12-30T10:58:04.971Z,90.76
2017-12-30T10:59:04.962Z,91.42
2017-12-30T11:00:04.944Z,91.04
2017-12-30T11:01:04.943Z,91.14
2017-12-30T11:02:04.984Z,91.04
2017-12-30T11:03:04.907Z,91.33
2017-12-30T11:04:04.908Z,91.24
2017-12-30T11:05:04.889Z,91.33
2017-12-30T11:06:04.615Z,91.14
2017-12-30T11:07:04.861Z,91.14
2017-12-30T11:08:04.858Z,91.33
2017-12-30T11:09:04.843Z,91.14
2017-12-30T11:10:04.827Z,91.24
2017-12-30T11:11:04.820Z,91.33
2017-12-30T11:12:04.807Z,91.61
2017-12-30T11:13:04.792Z,91.33
2017-12-30T11:14:04.780Z,91.89
2017-12-30T11:15:04.767Z,91.71
2017-12-30T11:16:04.754Z,92.18
2017-12-30T11:17:04.745Z,91.61
2017-12-30T11:18:04.746Z,91.89
2017-12-30T11:19:04.753Z,91.61
2017-12-30T11:20:04.707Z,91.42
2017-12-30T11:21:04.741Z,91.71
2017-12-30T11:22:04.684Z,92.09
2017-12-30T11:23:04.682Z,91.61
2017-12-30T11:24:04.669Z,92.09
2017-12-30T11:25:04.665Z,91.71
2017-12-30T11:26:04.636Z,92.18
2017-12-30T11:27:04.624Z,92.18
2017-12-30T11:28:04.621Z,91.99
2017-12-30T11:29:04.618Z,92.18
2017-12-30T11:30:04.594Z,91.99
2017-12-30T11:31:04.579Z,92.09
2017-12-30T11:32:04.314Z,91.99
2017-12-30T11:33:04.562Z,91.61
2017-12-30T11:34:04.571Z,91.99
2017-12-30T11:35:04.530Z,92.37
2017-12-30T11:36:04.549Z,91.99
2017-12-30T11:37:04.566Z,92.18
2017-12-30T11:38:04.506Z,92.18
2017-12-30T11:39:04.484Z,92.28
2017-12-30T11:40:04.471Z,92.37
2017-12-30T11:41:04.459Z,91.89
2017-12-30T11:42:04.450Z,91.89
2017-12-30T11:43:04.434Z,92.18
2017-12-30T11:44:04.424Z,91.99
2017-12-30T11:45:04.163Z,92.18
2017-12-30T11:46:04.408Z,92.09
2017-12-30T11:47:04.388Z,91.99
2017-12-30T11:48:04.390Z,91.52
2017-12-30T11:49:04.375Z,92.09
2017-12-30T11:50:04.096Z,92.18
2017-12-30T11:51:04.338Z,92.09
2017-12-30T11:52:04.076Z,92.66
2017-12-30T11:53:04.317Z,92.66
2017-12-30T11:54:04.308Z,92.75
2017-12-30T11:55:04.039Z,92.47
2017-12-30T11:56:04.279Z,92.47
2017-12-30T11:57:04.267Z,92.75
2017-12-30T11:58:04.275Z,92.85
2017-12-30T11:59:04.243Z,92.75
2017-12-30T12:00:04.235Z,92.47
2017-12-30T12:01:04.229Z,92.66
2017-12-30T12:02:03.955Z,92.47
2017-12-30T12:03:04.196Z,92.66
2017-12-30T12:04:04.192Z,92.66
2017-12-30T12:05:04.181Z,92.37
2017-12-30T12:06:04.160Z,92.75
2017-12-30T12:07:04.151Z,92.37
2017-12-30T12:08:04.148Z,92.47
2017-12-30T12:09:04.131Z,92.56
2017-12-30T12:10:04.117Z,91.89
2017-12-30T12:11:04.109Z,91.89
2017-12-30T12:12:04.090Z,91.89
2017-12-30T12:13:04.091Z,91.52
2017-12-30T12:14:04.067Z,92.28
2017-12-30T12:15:04.054Z,92.75
2017-12-30T12:16:04.051Z,92.66
2017-12-30T12:17:04.036Z,92.66
2017-12-30T12:18:04.028Z,92.85
2017-12-30T12:19:04.014Z,93.04
2017-12-30T12:20:03.741Z,92.94
2017-12-30T12:21:03.984Z,93.08
2017-12-30T12:22:03.982Z,93.13
2017-12-30T12:23:03.709Z,93.08
2017-12-30T12:24:03.944Z,93.46
2017-12-30T12:25:03.677Z,93.56
2017-12-30T12:26:03.924Z,94.13
2017-12-30T12:27:03.909Z,94.13
2017-12-30T12:28:03.897Z,93.56
2017-12-30T12:29:03.893Z,94.42
2017-12-30T12:30:03.623Z,94.13
2017-12-30T12:31:03.862Z,94.13
2017-12-30T12:32:03.858Z,93.37
2017-12-30T12:33:03.834Z,93.65
2017-12-30T12:34:03.871Z,94.03
2017-12-30T12:35:03.817Z,94.13
2017-12-30T12:36:03.812Z,94.03
2017-12-30T12:37:03.800Z,93.84
2017-12-30T12:38:03.787Z,94.03
2017-12-30T12:39:03.762Z,94.03
2017-12-30T12:40:03.757Z,94.23
2017-12-30T12:41:03.752Z,93.94
2017-12-30T12:42:03.733Z,93.84
2017-12-30T12:43:03.715Z,93.94
2017-12-30T12:44:03.700Z,94.03
2017-12-30T12:45:03.689Z,94.13
2017-12-30T12:46:03.686Z,93.94
2017-12-30T12:47:03.662Z,94.13
2017-12-30T12:48:03.393Z,94.03
2017-12-30T12:49:03.637Z,94.03
2017-12-30T12:50:03.624Z,94.23
2017-12-30T12:51:03.613Z,94.03
2017-12-30T12:52:03.611Z,93.94
2017-12-30T12:53:03.587Z,94.13